Time;durP1;ratioP1;P1;durP2;ratioP2;P2;SDS_P1;SDS_P2;PMS_P1;PMS_P2;Temp;Humidity;BMP_temperature;BMP_pressure;BME280_temperature;BME280_humidity;BME280_pressure;Samples;Min_cycle;Max_cycle;Signal;HPM_P1;HPM_P2
2022/05/22 00:02:06;;;;;;;23.92;15.27;;;10.80;99.90;;;;;;5054461;28;20045;-65
2022/05/22 00:04:32;;;;;;;25.88;14.48;;;10.80;99.90;;;;;;5053825;28;20114;-66
2022/05/22 00:06:58;;;;;;;27.88;13.88;;;10.80;99.90;;;;;;5054784;28;20414;-65
2022/05/22 00:09:24;;;;;;;22.33;13.40;;;10.80;99.90;;;;;;5053515;28;20057;-65
2022/05/22 00:11:50;;;;;;;28.65;15.32;;;10.80;99.90;;;;;;5054423;28;20095;-64
2022/05/22 00:14:18;;;;;;;19.70;13.23;;;10.80;99.90;;;;;;5054547;28;20462;-65
2022/05/22 00:16:46;;;;;;;23.63;14.73;;;10.80;99.90;;;;;;5054164;28;20048;-65
2022/05/22 00:19:21;;;;;;;25.42;12.82;;;10.70;99.90;;;;;;5054184;28;20357;-64
2022/05/22 00:21:47;;;;;;;25.67;14.88;;;10.80;99.90;;;;;;5054506;28;20096;-65
2022/05/22 00:24:14;;;;;;;23.83;13.40;;;10.70;99.90;;;;;;5052293;28;20375;-64
2022/05/22 00:26:40;;;;;;;18.33;12.77;;;10.70;99.90;;;;;;5054371;28;20473;-65
2022/05/22 00:29:06;;;;;;;22.65;13.00;;;10.70;99.90;;;;;;5054381;28;20111;-64
2022/05/22 00:31:32;;;;;;;21.80;12.52;;;10.70;99.90;;;;;;5053117;28;20037;-66
2022/05/22 00:33:57;;;;;;;20.85;12.20;;;10.70;99.90;;;;;;5054268;28;20683;-65
2022/05/22 00:36:23;;;;;;;22.23;12.82;;;10.60;99.90;;;;;;5054453;28;20040;-65
2022/05/22 00:38:49;;;;;;;20.48;12.00;;;10.60;99.90;;;;;;5050970;28;20547;-65
2022/05/22 00:41:15;;;;;;;18.60;12.00;;;10.60;99.90;;;;;;5054156;28;20128;-65
2022/05/22 00:43:45;;;;;;;17.40;11.77;;;10.60;99.90;;;;;;5054220;28;20052;-65
2022/05/22 00:46:12;;;;;;;19.48;11.27;;;10.60;99.90;;;;;;5054203;28;20057;-65
2022/05/22 00:48:40;;;;;;;18.38;12.13;;;10.50;99.90;;;;;;5054203;28;20045;-65
2022/05/22 00:51:29;;;;;;;25.83;12.60;;;10.50;99.90;;;;;;5053949;28;20569;-64
2022/05/22 00:54:00;;;;;;;23.92;11.55;;;10.60;99.90;;;;;;5045915;28;20056;-65
2022/05/22 00:56:33;;;;;;;22.08;10.90;;;10.60;99.90;;;;;;5053850;28;20045;-65
2022/05/22 00:58:59;;;;;;;19.13;10.70;;;10.60;99.90;;;;;;5054065;28;20055;-65
2022/05/22 01:01:25;;;;;;;17.38;12.05;;;10.60;99.90;;;;;;5054058;28;20051;-64
2022/05/22 01:03:52;;;;;;;16.45;9.82;;;10.50;99.90;;;;;;5054310;28;20045;-65
2022/05/22 01:06:20;;;;;;;17.88;10.13;;;10.50;99.90;;;;;;5054302;28;20056;-65
2022/05/22 01:08:49;;;;;;;18.50;11.20;;;10.50;99.90;;;;;;5054432;28;20040;-65
2022/05/22 01:11:20;;;;;;;17.40;10.27;;;10.50;99.90;;;;;;5057326;28;20048;-65
2022/05/22 01:13:52;;;;;;;17.42;11.15;;;10.50;99.90;;;;;;5057271;28;20451;-64
2022/05/22 01:16:19;;;;;;;19.27;10.13;;;10.50;99.90;;;;;;5057641;28;20041;-65
2022/05/22 01:18:47;;;;;;;17.42;10.88;;;10.40;99.90;;;;;;5057252;28;20106;-65
2022/05/22 01:21:18;;;;;;;22.85;11.02;;;10.40;99.90;;;;;;5056264;28;20045;-65
2022/05/22 01:23:44;;;;;;;22.25;11.25;;;10.40;99.90;;;;;;5017048;28;20542;-65
2022/05/22 01:26:10;;;;;;;26.02;11.13;;;10.30;99.90;;;;;;5016685;28;20128;-65
2022/05/22 01:28:36;;;;;;;18.45;10.38;;;10.40;99.90;;;;;;5017612;28;20041;-65
2022/05/22 01:31:02;;;;;;;18.52;10.98;;;10.30;99.90;;;;;;5017126;28;20177;-64
2022/05/22 01:33:28;;;;;;;18.30;10.60;;;10.30;99.90;;;;;;5017373;28;20052;-65
2022/05/22 01:35:53;;;;;;;21.35;10.40;;;10.40;99.90;;;;;;5017501;28;20038;-65
2022/05/22 01:38:19;;;;;;;19.48;10.45;;;10.30;99.90;;;;;;5056396;28;20145;-65
2022/05/22 01:40:46;;;;;;;20.38;11.68;;;10.30;99.90;;;;;;5041420;28;20469;-65
2022/05/22 01:43:12;;;;;;;21.80;10.77;;;10.30;99.90;;;;;;5036173;28;20046;-65
2022/05/22 01:45:41;;;;;;;19.20;10.82;;;10.30;99.90;;;;;;5019895;28;20107;-65
2022/05/22 01:48:07;;;;;;;20.30;10.45;;;10.30;99.90;;;;;;5035854;28;20455;-65
2022/05/22 01:50:33;;;;;;;18.05;10.55;;;10.30;99.90;;;;;;5049578;28;20056;-65
2022/05/22 01:52:59;;;;;;;18.70;10.13;;;10.20;99.90;;;;;;5055718;28;20049;-66
2022/05/22 01:55:24;;;;;;;15.52;10.30;;;10.30;99.90;;;;;;5056427;28;20340;-64
2022/05/22 01:57:50;;;;;;;15.10;10.05;;;10.30;99.90;;;;;;5056678;28;20095;-65
2022/05/22 02:00:18;;;;;;;17.30;9.73;;;10.30;99.90;;;;;;5056816;28;20099;-64
2022/05/22 02:02:44;;;;;;;15.50;8.82;;;10.30;99.90;;;;;;5056850;28;20351;-64
2022/05/22 02:05:10;;;;;;;19.00;10.00;;;10.20;99.90;;;;;;5055225;28;20099;-64
2022/05/22 02:10:35;;;;;;;20.13;9.55;;;10.20;99.90;;;;;;5011964;28;20049;-65
2022/05/22 02:13:01;;;;;;;14.30;9.07;;;10.20;99.90;;;;;;5052715;28;20056;-65
2022/05/22 02:15:27;;;;;;;26.95;10.15;;;10.20;99.90;;;;;;5056410;28;20085;-64
2022/05/22 02:17:53;;;;;;;17.20;10.32;;;10.30;99.90;;;;;;5039140;28;20522;-66
2022/05/22 02:20:19;;;;;;;14.68;10.13;;;10.30;99.90;;;;;;5054147;28;20132;-65
2022/05/22 02:22:50;;;;;;;17.13;9.77;;;10.20;99.90;;;;;;5056202;28;20127;-65
2022/05/22 02:25:23;;;;;;;20.13;10.13;;;10.20;99.90;;;;;;5056389;28;20041;-64
2022/05/22 02:27:49;;;;;;;19.00;9.55;;;10.20;99.90;;;;;;5056483;28;20045;-64
2022/05/22 02:30:19;;;;;;;16.17;9.60;;;10.20;99.90;;;;;;5056153;28;20099;-64
2022/05/22 02:32:44;;;;;;;16.58;10.23;;;10.30;99.90;;;;;;5055850;28;20068;-64
2022/05/22 02:35:12;;;;;;;20.90;9.63;;;10.20;99.90;;;;;;5054688;28;20467;-64
2022/05/22 02:37:45;;;;;;;15.55;10.13;;;10.20;99.90;;;;;;5055849;28;20049;-64
2022/05/22 02:40:13;;;;;;;18.83;10.20;;;10.20;99.90;;;;;;5056137;28;20155;-64
2022/05/22 02:42:40;;;;;;;14.80;9.43;;;10.20;99.90;;;;;;5056202;28;20048;-64
2022/05/22 02:45:06;;;;;;;12.85;9.15;;;10.20;99.90;;;;;;5055517;28;20040;-66
2022/05/22 02:47:33;;;;;;;15.02;9.55;;;10.10;99.90;;;;;;5055493;28;20447;-65
2022/05/22 02:49:59;;;;;;;15.23;9.52;;;10.10;99.90;;;;;;5053055;28;20055;-64
2022/05/22 02:52:24;;;;;;;16.63;9.52;;;10.20;99.90;;;;;;5055791;28;20049;-64
2022/05/22 02:54:50;;;;;;;18.27;11.13;;;10.10;99.90;;;;;;5055598;28;20049;-65
2022/05/22 02:57:21;;;;;;;18.00;9.32;;;10.10;99.90;;;;;;5055530;28;20394;-65
2022/05/22 02:59:47;;;;;;;16.63;9.70;;;10.10;99.90;;;;;;5055573;28;20089;-65
2022/05/22 03:02:13;;;;;;;15.77;9.80;;;10.10;99.90;;;;;;5054057;28;20041;-64
2022/05/22 03:04:39;;;;;;;22.13;11.20;;;10.10;99.90;;;;;;5055460;28;20481;-65
2022/05/22 03:07:04;;;;;;;13.15;9.60;;;10.10;99.90;;;;;;5055423;28;20051;-65
2022/05/22 03:09:30;;;;;;;18.30;10.43;;;10.10;99.90;;;;;;5055596;28;20064;-65
2022/05/22 03:11:57;;;;;;;17.77;10.38;;;10.00;99.90;;;;;;5055468;28;20459;-65
2022/05/22 03:14:24;;;;;;;21.27;10.10;;;10.10;99.90;;;;;;5055102;28;20045;-65
2022/05/22 03:16:49;;;;;;;17.50;10.48;;;10.00;99.90;;;;;;5054363;28;20044;-64
2022/05/22 03:19:15;;;;;;;20.45;11.40;;;10.00;99.90;;;;;;5053291;28;20064;-64
2022/05/22 03:21:45;;;;;;;17.27;11.02;;;10.10;99.90;;;;;;5054383;28;20056;-64
2022/05/22 03:24:10;;;;;;;16.60;11.02;;;10.10;99.90;;;;;;5055247;28;20055;-64
2022/05/22 03:26:36;;;;;;;18.48;10.95;;;10.10;99.90;;;;;;5055384;28;20049;-64
2022/05/22 03:29:02;;;;;;;16.38;10.55;;;10.00;99.90;;;;;;5055028;28;20116;-65
2022/05/22 03:31:27;;;;;;;23.35;11.93;;;10.10;99.90;;;;;;5041369;28;20081;-64
2022/05/22 03:33:53;;;;;;;18.83;10.55;;;10.00;99.90;;;;;;5015207;28;20038;-64
2022/05/22 03:36:18;;;;;;;21.88;11.85;;;10.00;99.90;;;;;;5015308;28;20061;-65
2022/05/22 03:38:44;;;;;;;20.45;11.48;;;10.00;99.90;;;;;;5014403;28;20046;-65
2022/05/22 03:41:10;;;;;;;17.35;11.38;;;10.00;99.90;;;;;;5015012;28;20201;-64
2022/05/22 03:43:35;;;;;;;19.25;11.80;;;10.10;99.90;;;;;;5015287;28;20050;-65
2022/05/22 03:46:01;;;;;;;21.23;12.13;;;10.00;99.90;;;;;;5028134;28;20071;-65
2022/05/22 03:48:27;;;;;;;19.45;11.85;;;10.00;99.90;;;;;;5053994;28;20432;-64
2022/05/22 03:50:52;;;;;;;17.85;11.10;;;10.10;99.90;;;;;;5054587;28;20114;-65
2022/05/22 03:53:18;;;;;;;21.77;12.18;;;10.10;99.90;;;;;;5054903;28;20056;-65
2022/05/22 03:55:43;;;;;;;18.13;10.68;;;10.10;99.90;;;;;;5054799;28;20045;-64
2022/05/22 03:58:10;;;;;;;18.40;11.68;;;10.10;99.90;;;;;;5054659;28;20363;-65
2022/05/22 04:00:35;;;;;;;16.95;11.18;;;10.10;99.90;;;;;;5047847;28;20033;-64
2022/05/22 04:03:01;;;;;;;16.08;10.38;;;10.10;99.90;;;;;;5034689;28;20056;-64
2022/05/22 04:05:27;;;;;;;18.08;11.57;;;10.20;99.90;;;;;;5034620;28;20052;-64
2022/05/22 04:07:52;;;;;;;14.02;10.65;;;10.20;99.90;;;;;;5034832;28;20053;-64
2022/05/22 04:10:18;;;;;;;12.70;9.00;;;10.20;99.90;;;;;;5034409;28;20448;-65
2022/05/22 04:12:44;;;;;;;17.15;9.20;;;10.20;99.90;;;;;;5034024;28;20463;-66
2022/05/22 04:15:14;;;;;;;15.07;9.45;;;10.30;99.90;;;;;;5044858;28;20094;-64
2022/05/22 04:17:39;;;;;;;16.45;9.68;;;10.30;99.90;;;;;;5054177;28;20498;-65
2022/05/22 04:20:07;;;;;;;13.55;9.30;;;10.30;99.90;;;;;;5054637;28;20084;-64
2022/05/22 04:22:32;;;;;;;14.80;8.32;;;10.30;99.90;;;;;;5051455;28;20370;-65
2022/05/22 04:25:15;;;;;;;15.65;8.35;;;10.30;99.90;;;;;;5054643;28;20128;-65
2022/05/22 04:27:42;;;;;;;14.48;8.20;;;10.30;99.90;;;;;;5054354;28;20049;-64
2022/05/22 04:30:18;;;;;;;10.63;7.88;;;10.40;99.90;;;;;;5054420;28;20363;-65
2022/05/22 04:32:45;;;;;;;10.68;8.25;;;10.40;99.90;;;;;;5054398;28;20359;-64
2022/05/22 04:35:11;;;;;;;10.98;8.20;;;10.40;99.90;;;;;;5054167;28;20044;-64
2022/05/22 04:37:37;;;;;;;14.57;8.68;;;10.40;99.90;;;;;;5036653;28;20041;-65
2022/05/22 04:40:03;;;;;;;13.38;7.53;;;10.40;99.90;;;;;;5054007;28;20053;-65
2022/05/22 04:42:28;;;;;;;12.27;8.95;;;10.40;99.90;;;;;;5054237;28;20113;-65
2022/05/22 04:44:54;;;;;;;15.93;7.88;;;10.50;99.90;;;;;;5057042;28;20124;-65
2022/05/22 04:47:19;;;;;;;12.10;8.88;;;10.50;99.90;;;;;;5057077;28;20044;-65
2022/05/22 04:49:48;;;;;;;12.18;8.73;;;10.60;99.90;;;;;;5055626;28;20045;-64
2022/05/22 04:52:14;;;;;;;13.88;9.07;;;10.50;99.90;;;;;;5058093;28;20044;-64
2022/05/22 04:54:39;;;;;;;14.10;9.30;;;10.60;99.90;;;;;;5057939;28;20049;-65
2022/05/22 04:57:05;;;;;;;13.43;9.50;;;10.60;99.90;;;;;;5057903;28;20127;-65
2022/05/22 04:59:30;;;;;;;14.68;8.73;;;10.70;99.90;;;;;;5057721;28;20140;-65
2022/05/22 05:01:56;;;;;;;20.48;9.70;;;10.70;99.90;;;;;;5056729;28;20525;-64
2022/05/22 05:04:21;;;;;;;16.52;9.25;;;10.80;99.90;;;;;;5057378;28;20041;-65
2022/05/22 05:06:47;;;;;;;16.92;9.88;;;10.70;99.90;;;;;;5057762;28;20063;-65
2022/05/22 05:09:13;;;;;;;16.73;9.73;;;10.80;99.90;;;;;;5057746;28;20124;-65
2022/05/22 05:11:38;;;;;;;19.52;10.13;;;10.90;99.90;;;;;;5057487;28;20063;-65
2022/05/22 05:14:04;;;;;;;20.80;9.85;;;10.90;99.90;;;;;;5056310;28;20114;-65
2022/05/22 05:16:29;;;;;;;20.95;10.80;;;10.90;99.90;;;;;;5056688;28;20052;-65
2022/05/22 05:18:55;;;;;;;21.88;11.52;;;11.00;99.90;;;;;;5057451;28;20037;-64
2022/05/22 05:21:20;;;;;;;16.80;9.57;;;11.10;99.90;;;;;;5057390;28;20459;-65
2022/05/22 05:23:46;;;;;;;20.80;10.85;;;11.00;99.90;;;;;;5057171;28;20463;-64
2022/05/22 05:26:13;;;;;;;21.88;10.75;;;11.10;99.90;;;;;;5057069;28;20436;-65
2022/05/22 05:28:38;;;;;;;23.95;10.30;;;11.20;99.90;;;;;;5057399;28;20045;-65
2022/05/22 05:31:04;;;;;;;19.52;9.57;;;11.20;99.90;;;;;;5054920;28;20414;-65
2022/05/22 05:33:33;;;;;;;21.77;10.20;;;11.20;99.90;;;;;;5057294;28;20045;-65
2022/05/22 05:35:59;;;;;;;17.40;9.00;;;11.30;99.90;;;;;;5057121;28;20041;-65
2022/05/22 05:38:25;;;;;;;14.65;9.50;;;11.30;99.90;;;;;;5056456;28;20053;-64
2022/05/22 05:40:50;;;;;;;16.88;8.32;;;11.40;99.90;;;;;;5057231;28;20118;-65
2022/05/22 05:43:16;;;;;;;16.83;8.82;;;11.50;99.90;;;;;;5055389;28;20049;-65
2022/05/22 05:45:43;;;;;;;22.35;9.18;;;11.50;99.90;;;;;;5056173;28;20045;-64
2022/05/22 05:48:09;;;;;;;21.00;7.88;;;11.50;99.90;;;;;;5036543;28;20455;-65
2022/05/22 05:50:35;;;;;;;12.18;7.78;;;11.60;99.90;;;;;;5036795;28;20102;-64
2022/05/22 05:53:02;;;;;;;14.88;7.80;;;11.60;99.90;;;;;;5036706;28;20057;-65
2022/05/22 05:55:28;;;;;;;22.08;8.15;;;11.70;99.90;;;;;;5036195;28;20042;-65
2022/05/22 05:57:54;;;;;;;17.90;7.78;;;11.80;99.90;;;;;;5030518;28;20038;-66
2022/05/22 06:00:23;;;;;;;15.32;8.02;;;11.80;99.90;;;;;;5049837;28;20076;-65
2022/05/22 06:02:49;;;;;;;16.95;7.78;;;11.90;99.90;;;;;;5056828;28;20383;-65
2022/05/22 06:05:15;;;;;;;14.98;7.60;;;11.90;99.90;;;;;;5056982;28;20048;-65
2022/05/22 06:07:41;;;;;;;19.58;8.93;;;12.10;99.90;;;;;;5056385;28;20429;-65
2022/05/22 06:10:08;;;;;;;17.45;8.20;;;12.20;99.90;;;;;;5055578;28;20048;-65
2022/05/22 06:12:34;;;;;;;18.05;7.57;;;12.20;99.90;;;;;;5056301;28;20103;-64
2022/05/22 06:15:00;;;;;;;17.02;7.50;;;12.40;99.90;;;;;;5056475;28;20044;-65
2022/05/22 06:17:56;;;;;;;15.93;7.15;;;12.50;99.90;;;;;;5056577;28;20033;-64
2022/05/22 06:20:22;;;;;;;14.65;7.03;;;12.60;99.90;;;;;;5054823;28;20160;-65
2022/05/22 06:22:47;;;;;;;20.92;8.38;;;12.70;99.90;;;;;;5055986;28;20482;-64
2022/05/22 06:25:17;;;;;;;15.63;7.43;;;12.70;99.90;;;;;;5054940;28;20127;-65
2022/05/22 06:27:43;;;;;;;14.18;6.88;;;12.80;99.90;;;;;;5056185;28;20080;-65
2022/05/22 06:30:13;;;;;;;20.85;8.25;;;12.90;99.90;;;;;;5056582;28;20045;-68
2022/05/22 06:32:40;;;;;;;14.07;7.25;;;13.10;99.90;;;;;;5054501;28;20045;-65
2022/05/22 06:35:08;;;;;;;11.90;7.13;;;13.10;99.90;;;;;;5020701;28;20057;-65
2022/05/22 06:37:33;;;;;;;15.63;7.43;;;13.20;99.90;;;;;;5015915;28;20045;-66
2022/05/22 06:39:59;;;;;;;14.80;6.85;;;13.20;99.90;;;;;;5031863;28;20129;-66
2022/05/22 06:42:39;;;;;;;13.65;6.70;;;13.40;99.90;;;;;;5016380;28;20046;-66
2022/05/22 06:45:11;;;;;;;13.07;6.55;;;13.50;99.90;;;;;;5016198;28;20050;-66
2022/05/22 06:47:37;;;;;;;12.23;6.45;;;13.60;99.90;;;;;;5043286;28;20087;-66
2022/05/22 06:50:06;;;;;;;10.35;5.63;;;13.70;99.90;;;;;;5055636;28;20049;-66
2022/05/22 06:52:32;;;;;;;13.40;6.00;;;13.70;99.90;;;;;;5055768;28;20111;-66
2022/05/22 06:54:59;;;;;;;12.45;6.15;;;13.90;99.90;;;;;;5055015;28;20076;-67
2022/05/22 06:57:25;;;;;;;11.70;5.70;;;14.00;99.90;;;;;;5055670;28;20056;-67
2022/05/22 06:59:54;;;;;;;15.00;5.13;;;14.00;99.90;;;;;;5055138;28;20052;-67
2022/05/22 07:02:19;;;;;;;13.93;5.15;;;14.10;99.90;;;;;;5052491;28;20051;-66
2022/05/22 07:04:45;;;;;;;11.35;5.15;;;14.20;99.90;;;;;;5055665;28;20052;-66
2022/05/22 07:07:10;;;;;;;15.23;4.95;;;14.30;99.90;;;;;;5053587;28;20482;-66
2022/05/22 07:09:36;;;;;;;13.55;5.18;;;14.30;99.90;;;;;;5054675;28;20052;-66
2022/05/22 07:12:06;;;;;;;12.23;4.65;;;14.50;99.90;;;;;;5054022;28;20481;-66
2022/05/22 07:14:32;;;;;;;9.90;3.72;;;14.50;99.90;;;;;;5055234;28;20084;-67
2022/05/22 07:17:04;;;;;;;13.15;4.60;;;14.50;99.90;;;;;;5054028;28;20056;-67
2022/05/22 07:19:30;;;;;;;8.68;3.25;;;14.60;99.90;;;;;;5055501;28;20060;-66
2022/05/22 07:21:55;;;;;;;10.70;3.80;;;14.60;99.90;;;;;;5054519;28;20052;-66
2022/05/22 07:24:21;;;;;;;14.75;3.67;;;14.70;99.90;;;;;;5055493;28;20049;-66
2022/05/22 07:26:46;;;;;;;10.43;3.90;;;14.80;99.90;;;;;;5055046;28;20520;-67
2022/05/22 07:29:12;;;;;;;11.40;3.55;;;14.80;99.90;;;;;;5055381;28;20469;-67
2022/05/22 07:31:40;;;;;;;10.90;4.32;;;15.00;99.90;;;;;;5049088;28;20447;-66
2022/05/22 07:34:05;;;;;;;11.13;3.90;;;15.00;99.90;;;;;;5055042;28;20056;-67
2022/05/22 07:36:31;;;;;;;11.00;4.40;;;15.20;99.90;;;;;;5054998;28;20053;-67
2022/05/22 07:38:57;;;;;;;10.77;4.22;;;15.20;99.90;;;;;;5054008;28;20045;-67
2022/05/22 07:41:22;;;;;;;8.82;3.42;;;15.30;99.90;;;;;;5054922;28;20347;-67
2022/05/22 07:43:48;;;;;;;12.00;4.15;;;15.40;99.90;;;;;;5054869;28;20137;-66
2022/05/22 07:46:14;;;;;;;9.73;3.70;;;15.50;99.90;;;;;;5054923;28;20037;-66
2022/05/22 07:48:41;;;;;;;11.85;3.85;;;15.50;99.90;;;;;;5054744;28;20045;-66
2022/05/22 07:51:08;;;;;;;10.45;4.53;;;15.60;99.90;;;;;;5054230;28;20083;-66
2022/05/22 07:53:34;;;;;;;11.82;4.85;;;15.70;99.90;;;;;;5044531;28;20041;-66
2022/05/22 07:56:01;;;;;;;10.02;3.63;;;15.70;99.90;;;;;;5036142;28;20055;-66
2022/05/22 07:58:28;;;;;;;13.02;4.20;;;15.70;99.90;;;;;;5039953;28;20052;-66
2022/05/22 08:00:54;;;;;;;9.13;4.13;;;15.70;99.90;;;;;;5034234;28;20045;-67
2022/05/22 08:03:20;;;;;;;11.98;4.50;;;15.70;99.90;;;;;;5034420;28;20485;-67
2022/05/22 08:05:46;;;;;;;9.77;3.90;;;15.90;99.90;;;;;;5043794;28;20049;-67
2022/05/22 08:08:12;;;;;;;11.38;4.35;;;16.10;99.90;;;;;;5044061;28;20443;-67
2022/05/22 08:10:39;;;;;;;12.18;4.90;;;16.10;99.90;;;;;;5042642;28;20091;-67
2022/05/22 08:13:05;;;;;;;12.70;4.70;;;16.10;99.90;;;;;;5044323;28;20049;-66
2022/05/22 08:15:32;;;;;;;15.48;5.35;;;16.30;99.90;;;;;;5042613;28;20061;-68
2022/05/22 08:17:59;;;;;;;13.27;5.18;;;16.30;99.90;;;;;;5045081;28;20029;-66
2022/05/22 08:20:26;;;;;;;15.00;5.30;;;16.30;99.90;;;;;;5038399;28;20073;-67
2022/05/22 08:22:59;;;;;;;12.50;5.25;;;16.30;99.90;;;;;;5038877;28;20037;-67
2022/05/22 08:25:27;;;;;;;11.15;4.20;;;16.40;99.90;;;;;;5058252;28;20049;-68
2022/05/22 08:27:53;;;;;;;7.68;5.05;;;16.40;99.90;;;;;;5058167;28;20049;-67
2022/05/22 08:30:21;;;;;;;14.27;4.88;;;16.50;99.90;;;;;;5058684;28;20056;-67
2022/05/22 08:32:48;;;;;;;10.73;5.13;;;16.60;99.90;;;;;;5058052;28;20199;-67
2022/05/22 08:35:18;;;;;;;12.77;5.22;;;16.70;99.90;;;;;;5058547;28;20056;-67
2022/05/22 08:37:45;;;;;;;9.63;4.78;;;16.70;99.90;;;;;;5056608;28;20354;-67
2022/05/22 08:40:13;;;;;;;13.20;5.70;;;16.70;99.90;;;;;;5040577;28;20213;-67
2022/05/22 08:42:48;;;;;;;14.73;6.07;;;16.60;99.90;;;;;;5037393;28;20045;-67
2022/05/22 08:45:20;;;;;;;;;;;16.70;99.90;;;;;;5039023;28;20472;-67
2022/05/22 08:48:43;;;;;;;9.60;5.25;;;16.80;99.90;;;;;;5020529;28;19932;-67
2022/05/22 08:51:15;;;;;;;13.75;5.72;;;17.00;99.90;;;;;;4938605;29;20063;-67
2022/05/22 08:53:49;;;;;;;17.25;6.25;;;17.10;99.90;;;;;;4981321;28;20054;-67
2022/05/22 08:59:25;;;;;;;14.48;6.13;;;16.90;99.90;;;;;;5055756;28;20414;-67
2022/05/22 09:02:04;;;;;;;15.00;5.53;;;17.10;99.90;;;;;;5058110;28;20131;-67
2022/05/22 09:04:49;;;;;;;13.35;6.50;;;17.20;99.90;;;;;;5058127;28;20049;-67
2022/05/22 09:07:23;;;;;;;16.73;6.75;;;17.00;99.90;;;;;;5057828;28;20040;-67
2022/05/22 09:10:03;;;;;;;15.02;6.55;;;17.20;99.90;;;;;;5057796;28;20107;-67
2022/05/22 09:12:43;;;;;;;13.98;5.30;;;17.40;99.90;;;;;;5057507;28;20040;-67
2022/05/22 09:15:34;;;;;;;17.95;6.20;;;17.20;99.90;;;;;;5056037;28;20118;-67
2022/05/22 09:18:32;;;;;;;12.52;6.13;;;17.20;99.90;;;;;;5056876;28;20055;-67
2022/05/22 09:21:06;;;;;;;13.98;5.75;;;17.40;99.90;;;;;;5057596;28;20040;-67
2022/05/22 09:24:12;;;;;;;17.98;6.63;;;17.50;99.90;;;;;;5057527;28;20102;-67
2022/05/22 09:26:45;;;;;;;16.38;5.82;;;17.80;99.90;;;;;;5057343;28;20040;-67
2022/05/22 09:29:35;;;;;;;13.00;5.80;;;18.00;99.90;;;;;;5055861;28;20052;-67
2022/05/22 09:32:18;;;;;;;15.75;4.95;;;18.00;99.90;;;;;;5057209;28;20049;-67
2022/05/22 09:35:08;;;;;;;15.90;6.35;;;18.00;99.90;;;;;;5057137;28;20443;-69
2022/05/22 09:38:13;;;;;;;8.23;5.65;;;18.10;99.90;;;;;;5056666;28;20060;-67
2022/05/22 09:40:47;;;;;;;17.75;5.78;;;18.20;99.90;;;;;;5042171;28;20041;-71
2022/05/22 09:43:28;;;;;;;12.32;5.75;;;18.30;99.90;;;;;;5036957;28;20080;-69
2022/05/22 09:46:20;;;;;;;12.43;4.60;;;18.30;99.90;;;;;;5042198;28;20033;-67
2022/05/22 09:49:06;;;;;;;8.27;3.85;;;18.30;99.90;;;;;;5056471;28;20530;-69
2022/05/22 09:51:49;;;;;;;10.90;4.30;;;18.20;99.90;;;;;;5056996;28;20063;-68
2022/05/22 09:54:57;;;;;;;12.15;4.45;;;18.20;99.90;;;;;;5056906;28;20057;-69
2022/05/22 09:57:40;;;;;;;12.90;4.88;;;18.40;99.90;;;;;;5056704;28;20068;-68
2022/05/22 10:00:06;;;;;;;14.20;5.47;;;18.30;99.90;;;;;;5036423;28;20045;-69
2022/05/22 10:03:03;;;;;;;16.40;5.10;;;18.50;99.90;;;;;;5034686;28;20056;-67
2022/05/22 10:05:46;;;;;;;9.85;4.97;;;18.50;99.90;;;;;;5049665;28;20059;-68
2022/05/22 10:09:05;;;;;;;9.27;4.30;;;18.40;99.90;;;;;;5056624;28;20152;-68
2022/05/22 10:12:00;;;;;;;11.65;4.70;;;18.60;99.90;;;;;;4975644;28;20058;-68
2022/05/22 10:14:38;;;;;;;8.75;3.90;;;18.50;99.90;;;;;;4975984;28;20487;-70
2022/05/22 10:17:35;;;;;;;8.40;4.00;;;18.60;99.90;;;;;;5031960;28;20081;-68
2022/05/22 10:20:33;;;;;;;9.27;3.28;;;18.70;99.90;;;;;;5039080;28;20198;-69
2022/05/22 10:23:08;;;;;;;9.43;3.60;;;18.80;99.90;;;;;;5056567;28;20056;-68
2022/05/22 10:25:46;;;;;;;9.40;4.20;;;18.90;99.90;;;;;;5056652;28;20506;-68
2022/05/22 10:28:20;;;;;;;11.35;3.92;;;18.90;99.90;;;;;;5055802;28;20106;-72
2022/05/22 10:30:55;;;;;;;14.57;4.50;;;18.80;99.90;;;;;;5040430;28;20048;-68
2022/05/22 10:33:34;;;;;;;9.45;3.88;;;18.90;99.90;;;;;;5036309;28;20064;-68
2022/05/22 10:36:12;;;;;;;16.48;4.03;;;19.00;99.90;;;;;;5036246;28;20071;-68
2022/05/22 10:39:00;;;;;;;8.45;3.42;;;19.20;99.90;;;;;;5035851;28;20080;-69
2022/05/22 10:44:20;;;;;;;11.00;3.67;;;19.00;99.90;;;;;;5037421;28;20100;-68
2022/05/22 10:46:51;;;;;;;6.00;2.95;;;19.00;99.90;;;;;;5056003;28;20045;-68
2022/05/22 10:49:20;;;;;;;9.65;3.25;;;19.00;99.90;;;;;;5054426;28;20473;-68
2022/05/22 10:52:22;;;;;;;10.13;3.28;;;18.80;99.90;;;;;;5055246;28;20458;-69
2022/05/22 10:54:51;;;;;;;10.25;3.40;;;19.00;99.90;;;;;;5042271;28;20075;-71
2022/05/22 10:57:23;;;;;;;9.15;3.38;;;19.10;99.90;;;;;;5055886;28;20068;-71
2022/05/22 10:59:50;;;;;;;8.98;3.28;;;19.30;99.90;;;;;;5044885;28;20259;-69
2022/05/22 11:02:24;;;;;;;9.48;3.10;;;19.30;99.90;;;;;;5035515;28;20068;-69
2022/05/22 11:04:51;;;;;;;7.63;3.00;;;19.30;99.90;;;;;;5035892;28;20414;-69
2022/05/22 11:07:49;;;;;;;7.45;2.78;;;19.30;99.90;;;;;;5035607;28;20052;-68
2022/05/22 11:10:25;;;;;;;8.85;3.88;;;19.60;99.90;;;;;;5019455;28;20103;-69
2022/05/22 11:13:00;;;;;;;6.90;3.05;;;19.60;99.90;;;;;;5035449;28;20059;-68
2022/05/22 11:15:30;;;;;;;8.30;3.30;;;19.70;99.90;;;;;;5051360;28;20451;-68
2022/05/22 11:18:05;;;;;;;9.90;3.47;;;19.80;99.90;;;;;;5055382;28;20369;-68
2022/05/22 11:20:31;;;;;;;14.75;4.05;;;19.70;99.90;;;;;;5055093;28;20099;-69
2022/05/22 11:23:18;;;;;;;10.85;3.30;;;19.80;99.90;;;;;;5055277;28;20463;-67
2022/05/22 11:26:05;;;;;;;7.85;3.10;;;20.10;99.90;;;;;;5055434;28;20049;-69
2022/05/22 11:29:24;;;;;;;7.28;3.13;;;20.20;99.90;;;;;;5044716;28;20120;-68
2022/05/22 11:32:15;;;;;;;7.35;3.08;;;20.50;99.90;;;;;;4974337;28;20102;-69
2022/05/22 11:35:17;;;;;;;6.72;2.83;;;20.60;99.90;;;;;;4974404;28;20055;-68
2022/05/22 11:38:12;;;;;;;12.32;3.88;;;20.70;99.90;;;;;;5053457;28;20088;-68
2022/05/22 11:41:01;;;;;;;7.28;2.92;;;20.70;99.90;;;;;;5055027;28;20041;-69
2022/05/22 11:43:32;;;;;;;7.40;2.97;;;20.80;99.90;;;;;;5052754;28;20037;-69
2022/05/22 11:46:04;;;;;;;9.95;3.45;;;20.80;99.90;;;;;;5054824;28;20120;-69
2022/05/22 11:48:51;;;;;;;7.78;3.00;;;21.10;99.90;;;;;;5055058;28;20179;-69
2022/05/22 11:51:53;;;;;;;5.78;2.90;;;21.20;99.90;;;;;;5054732;28;20044;-68
2022/05/22 11:54:39;;;;;;;8.93;2.63;;;21.30;99.80;;;;;;5054600;28;20136;-69
2022/05/22 11:57:37;;;;;;;5.53;2.92;;;21.40;99.90;;;;;;5048983;28;20042;-68
2022/05/22 12:00:19;;;;;;;6.90;2.85;;;21.60;99.10;;;;;;5034693;28;20128;-69
2022/05/22 12:03:06;;;;;;;7.05;2.88;;;21.90;99.90;;;;;;5034856;28;20037;-69
2022/05/22 12:06:02;;;;;;;10.35;3.15;;;22.50;99.90;;;;;;5035075;28;20096;-68
2022/05/22 12:09:01;;;;;;;6.70;2.63;;;22.50;96.90;;;;;;5034690;28;20056;-69
2022/05/22 12:11:29;;;;;;;6.70;2.72;;;22.70;99.90;;;;;;5035461;28;20046;-68
2022/05/22 12:14:10;;;;;;;4.47;2.60;;;23.10;96.80;;;;;;5054829;28;20055;-70
2022/05/22 12:17:01;;;;;;;6.30;2.55;;;23.00;99.00;;;;;;5053624;28;20045;-69
2022/05/22 12:19:39;;;;;;;10.18;2.65;;;23.40;97.50;;;;;;5053953;28;20049;-68
2022/05/22 12:22:19;;;;;;;6.50;2.47;;;23.80;96.50;;;;;;5054653;28;20064;-68
2022/05/22 12:25:05;;;;;;;5.80;3.22;;;23.40;95.70;;;;;;5054852;28;20053;-69
2022/05/22 12:27:36;;;;;;;8.48;3.15;;;23.80;95.70;;;;;;5044875;28;20105;-69
2022/05/22 12:30:26;;;;;;;7.03;2.85;;;22.90;92.20;;;;;;5039649;28;20052;-69
2022/05/22 12:33:05;;;;;;;7.97;2.20;;;23.00;93.90;;;;;;5043556;28;20053;-69
2022/05/22 12:35:31;;;;;;;6.53;3.10;;;23.70;98.20;;;;;;5054316;28;20340;-69
2022/05/22 12:38:01;;;;;;;6.07;2.42;;;23.80;97.30;;;;;;5054098;28;20052;-68
2022/05/22 12:41:00;;;;;;;6.28;2.50;;;23.90;94.10;;;;;;5054409;28;20056;-69
2022/05/22 12:43:27;;;;;;;9.10;2.97;;;23.90;91.60;;;;;;5054263;28;20136;-69
2022/05/22 12:45:55;;;;;;;5.55;2.45;;;23.70;93.80;;;;;;5052315;28;20417;-70
2022/05/22 12:48:25;;;;;;;9.88;3.85;;;23.60;92.30;;;;;;5029058;28;20133;-70
2022/05/22 12:51:05;;;;;;;7.55;3.53;;;24.10;89.30;;;;;;5014651;28;20050;-70
2022/05/22 12:53:31;;;;;;;6.43;2.35;;;23.80;92.20;;;;;;5014504;28;20042;-69
2022/05/22 12:56:40;;;;;;;5.53;2.92;;;23.40;91.60;;;;;;5014650;28;20124;-68
2022/05/22 12:59:30;;;;;;;6.70;2.63;;;23.00;90.20;;;;;;4938213;29;20082;-69
2022/05/22 13:01:58;;;;;;;8.95;2.30;;;23.10;86.10;;;;;;5029776;28;20069;-69
2022/05/22 13:04:54;;;;;;;5.15;2.33;;;23.40;94.00;;;;;;5055072;28;20363;-69
2022/05/22 13:07:31;;;;;;;5.25;2.47;;;23.90;90.60;;;;;;5057395;28;20045;-69
2022/05/22 13:09:57;;;;;;;5.75;2.30;;;23.70;83.90;;;;;;5057553;28;20366;-69